sensor_id;sensor_type;location;lat;lon;timestamp;pressure;altitude;pressure_sealevel;temperature;humidity
34506;BME280;20748;42.632;23.198;2023-05-12T00:00:54;92175.44;;;8.63;100.00
34506;BME280;20748;42.632;23.198;2023-05-12T00:03:26;92178.09;;;8.58;100.00
34506;BME280;20748;42.632;23.198;2023-05-12T00:05:59;92183.38;;;8.72;100.00
34506;BME280;20748;42.632;23.198;2023-05-12T00:08:34;92183.16;;;8.68;100.00
34506;BME280;20748;42.632;23.198;2023-05-12T00:11:06;92187.19;;;8.61;100.00
34506;BME280;20748;42.632;23.198;2023-05-12T00:13:39;92189.94;;;8.69;100.00
34506;BME280;20748;42.632;23.198;2023-05-12T00:16:12;92183.81;;;8.79;100.00
34506;BME280;20748;42.632;23.198;2023-05-12T00:18:46;92185.84;;;8.63;100.00
34506;BME280;20748;42.632;23.198;2023-05-12T00:21:18;92187.03;;;8.71;100.00
34506;BME280;20748;42.632;23.198;2023-05-12T00:23:50;92181.75;;;8.76;100.00
34506;BME280;20748;42.632;23.198;2023-05-12T00:26:23;92191.34;;;8.81;100.00
34506;BME280;20748;42.632;23.198;2023-05-12T00:28:56;92187.75;;;8.77;100.00
34506;BME280;20748;42.632;23.198;2023-05-12T00:31:29;92184.16;;;8.72;100.00
34506;BME280;20748;42.632;23.198;2023-05-12T00:34:01;92183.03;;;8.79;100.00
34506;BME280;20748;42.632;23.198;2023-05-12T00:36:34;92183.66;;;8.70;100.00
34506;BME280;20748;42.632;23.198;2023-05-12T00:39:06;92179.22;;;8.71;100.00
34506;BME280;20748;42.632;23.198;2023-05-12T00:41:38;92176.56;;;8.57;100.00
34506;BME280;20748;42.632;23.198;2023-05-12T00:44:11;92174.88;;;8.42;100.00
34506;BME280;20748;42.632;23.198;2023-05-12T00:46:44;92182.25;;;8.35;100.00
34506;BME280;20748;42.632;23.198;2023-05-12T00:49:17;92180.94;;;8.37;100.00
34506;BME280;20748;42.632;23.198;2023-05-12T00:51:49;92178.69;;;8.30;100.00
34506;BME280;20748;42.632;23.198;2023-05-12T00:54:22;92184.44;;;8.27;100.00
34506;BME280;20748;42.632;23.198;2023-05-12T00:56:54;92187.81;;;8.28;100.00
34506;BME280;20748;42.632;23.198;2023-05-12T00:59:28;92182.72;;;8.17;100.00
34506;BME280;20748;42.632;23.198;2023-05-12T01:02:01;92184.00;;;8.20;100.00
34506;BME280;20748;42.632;23.198;2023-05-12T01:04:34;92192.19;;;8.08;100.00
34506;BME280;20748;42.632;23.198;2023-05-12T01:07:11;92187.59;;;8.00;100.00
34506;BME280;20748;42.632;23.198;2023-05-12T01:09:46;92190.03;;;7.91;100.00
34506;BME280;20748;42.632;23.198;2023-05-12T01:12:19;92197.53;;;7.68;100.00
34506;BME280;20748;42.632;23.198;2023-05-12T01:14:54;92192.06;;;7.70;100.00
34506;BME280;20748;42.632;23.198;2023-05-12T01:17:31;92191.06;;;7.65;100.00
34506;BME280;20748;42.632;23.198;2023-05-12T01:20:06;92195.47;;;7.65;100.00
34506;BME280;20748;42.632;23.198;2023-05-12T01:22:39;92201.56;;;7.50;100.00
34506;BME280;20748;42.632;23.198;2023-05-12T01:25:13;92201.31;;;7.51;100.00
34506;BME280;20748;42.632;23.198;2023-05-12T01:27:48;92204.47;;;7.48;100.00
34506;BME280;20748;42.632;23.198;2023-05-12T01:30:22;92194.66;;;7.40;100.00
34506;BME280;20748;42.632;23.198;2023-05-12T01:32:55;92203.72;;;7.43;100.00
34506;BME280;20748;42.632;23.198;2023-05-12T01:35:29;92195.94;;;7.43;100.00
34506;BME280;20748;42.632;23.198;2023-05-12T01:38:05;92193.66;;;7.36;100.00
34506;BME280;20748;42.632;23.198;2023-05-12T01:40:41;92194.28;;;7.22;100.00
34506;BME280;20748;42.632;23.198;2023-05-12T01:43:14;92195.53;;;7.30;100.00
34506;BME280;20748;42.632;23.198;2023-05-12T01:45:47;92195.75;;;7.34;100.00
34506;BME280;20748;42.632;23.198;2023-05-12T01:48:19;92203.25;;;7.35;100.00
34506;BME280;20748;42.632;23.198;2023-05-12T01:50:52;92194.03;;;7.19;100.00
34506;BME280;20748;42.632;23.198;2023-05-12T01:53:26;92193.53;;;7.22;100.00
34506;BME280;20748;42.632;23.198;2023-05-12T01:55:58;92194.03;;;7.19;100.00
34506;BME280;20748;42.632;23.198;2023-05-12T01:58:32;92189.72;;;7.09;100.00
34506;BME280;20748;42.632;23.198;2023-05-12T02:01:05;92182.47;;;7.06;100.00
34506;BME280;20748;42.632;23.198;2023-05-12T02:03:38;92179.94;;;7.01;100.00
34506;BME280;20748;42.632;23.198;2023-05-12T02:06:16;92175.84;;;6.89;100.00
34506;BME280;20748;42.632;23.198;2023-05-12T02:08:48;92178.75;;;6.82;100.00
34506;BME280;20748;42.632;23.198;2023-05-12T02:11:21;92173.78;;;6.86;100.00
34506;BME280;20748;42.632;23.198;2023-05-12T02:13:54;92182.22;;;6.67;100.00
34506;BME280;20748;42.632;23.198;2023-05-12T02:16:28;92175.97;;;6.68;100.00
34506;BME280;20748;42.632;23.198;2023-05-12T02:19:01;92174.94;;;6.64;100.00
34506;BME280;20748;42.632;23.198;2023-05-12T02:21:36;92171.66;;;6.53;100.00
34506;BME280;20748;42.632;23.198;2023-05-12T02:24:08;92168.28;;;6.53;100.00
34506;BME280;20748;42.632;23.198;2023-05-12T02:26:41;92166.47;;;6.53;100.00
34506;BME280;20748;42.632;23.198;2023-05-12T02:29:15;92169.41;;;6.41;100.00
34506;BME280;20748;42.632;23.198;2023-05-12T02:31:47;92166.28;;;6.39;100.00
34506;BME280;20748;42.632;23.198;2023-05-12T02:34:21;92160.88;;;6.30;100.00
34506;BME280;20748;42.632;23.198;2023-05-12T02:36:54;92165.59;;;6.18;100.00
34506;BME280;20748;42.632;23.198;2023-05-12T02:39:26;92166.41;;;6.18;100.00
34506;BME280;20748;42.632;23.198;2023-05-12T02:41:59;92165.09;;;6.21;100.00
34506;BME280;20748;42.632;23.198;2023-05-12T02:44:32;92174.91;;;6.19;100.00
34506;BME280;20748;42.632;23.198;2023-05-12T02:47:05;92178.59;;;6.13;100.00
34506;BME280;20748;42.632;23.198;2023-05-12T02:49:37;92181.41;;;6.16;100.00
34506;BME280;20748;42.632;23.198;2023-05-12T02:52:10;92187.88;;;6.24;100.00
34506;BME280;20748;42.632;23.198;2023-05-12T02:54:42;92187.13;;;6.18;100.00
34506;BME280;20748;42.632;23.198;2023-05-12T02:57:15;92184.25;;;6.20;100.00
34506;BME280;20748;42.632;23.198;2023-05-12T02:59:48;92198.53;;;6.17;100.00
34506;BME280;20748;42.632;23.198;2023-05-12T03:02:20;92193.06;;;6.14;100.00
34506;BME280;20748;42.632;23.198;2023-05-12T03:04:52;92194.91;;;6.13;100.00
34506;BME280;20748;42.632;23.198;2023-05-12T03:07:24;92192.88;;;6.00;100.00
34506;BME280;20748;42.632;23.198;2023-05-12T03:09:57;92196.22;;;6.00;100.00
34506;BME280;20748;42.632;23.198;2023-05-12T03:12:30;92191.03;;;6.06;100.00
34506;BME280;20748;42.632;23.198;2023-05-12T03:15:04;92190.00;;;6.01;100.00
34506;BME280;20748;42.632;23.198;2023-05-12T03:17:38;92199.34;;;6.02;100.00
34506;BME280;20748;42.632;23.198;2023-05-12T03:20:11;92204.00;;;6.06;100.00
34506;BME280;20748;42.632;23.198;2023-05-12T03:22:43;92204.78;;;6.06;100.00
34506;BME280;20748;42.632;23.198;2023-05-12T03:25:16;92204.47;;;6.13;100.00
34506;BME280;20748;42.632;23.198;2023-05-12T03:27:48;92209.41;;;6.20;100.00
34506;BME280;20748;42.632;23.198;2023-05-12T03:30:21;92211.97;;;6.20;100.00
34506;BME280;20748;42.632;23.198;2023-05-12T03:32:53;92215.09;;;6.16;100.00
34506;BME280;20748;42.632;23.198;2023-05-12T03:35:26;92212.00;;;6.14;100.00
34506;BME280;20748;42.632;23.198;2023-05-12T03:37:58;92215.09;;;6.16;100.00
34506;BME280;20748;42.632;23.198;2023-05-12T03:40:31;92220.25;;;6.22;100.00
34506;BME280;20748;42.632;23.198;2023-05-12T03:43:03;92219.53;;;6.11;100.00
34506;BME280;20748;42.632;23.198;2023-05-12T03:45:36;92217.19;;;6.09;100.00
34506;BME280;20748;42.632;23.198;2023-05-12T03:48:08;92227.03;;;5.97;100.00
34506;BME280;20748;42.632;23.198;2023-05-12T03:50:41;92221.63;;;5.93;100.00
34506;BME280;20748;42.632;23.198;2023-05-12T03:53:13;92222.41;;;5.88;100.00
34506;BME280;20748;42.632;23.198;2023-05-12T03:55:45;92231.97;;;5.93;100.00
34506;BME280;20748;42.632;23.198;2023-05-12T03:58:18;92231.47;;;5.91;100.00
34506;BME280;20748;42.632;23.198;2023-05-12T04:00:51;92222.44;;;5.83;100.00
34506;BME280;20748;42.632;23.198;2023-05-12T04:03:27;92226.03;;;5.87;100.00
34506;BME280;20748;42.632;23.198;2023-05-12T04:06:01;92219.53;;;5.90;100.00
34506;BME280;20748;42.632;23.198;2023-05-12T04:08:33;92225.00;;;5.88;100.00
34506;BME280;20748;42.632;23.198;2023-05-12T04:11:05;92221.13;;;5.81;100.00
34506;BME280;20748;42.632;23.198;2023-05-12T04:13:38;92228.91;;;5.81;100.00
34506;BME280;20748;42.632;23.198;2023-05-12T04:16:11;92225.28;;;5.71;100.00
34506;BME280;20748;42.632;23.198;2023-05-12T04:18:43;92229.41;;;5.67;100.00
34506;BME280;20748;42.632;23.198;2023-05-12T04:21:15;92228.91;;;5.81;100.00
34506;BME280;20748;42.632;23.198;2023-05-12T04:23:50;92227.06;;;5.81;100.00
34506;BME280;20748;42.632;23.198;2023-05-12T04:26:23;92231.50;;;5.81;100.00
34506;BME280;20748;42.632;23.198;2023-05-12T04:28:55;92231.00;;;5.73;100.00
34506;BME280;20748;42.632;23.198;2023-05-12T04:31:28;92237.19;;;5.83;100.00
34506;BME280;20748;42.632;23.198;2023-05-12T04:34:02;92238.22;;;5.82;100.00
34506;BME280;20748;42.632;23.198;2023-05-12T04:36:35;92245.19;;;5.81;100.00
34506;BME280;20748;42.632;23.198;2023-05-12T04:39:08;92243.13;;;5.88;100.00
34506;BME280;20748;42.632;23.198;2023-05-12T04:41:40;92242.34;;;5.83;100.00
34506;BME280;20748;42.632;23.198;2023-05-12T04:44:13;92245.44;;;5.85;100.00
34506;BME280;20748;42.632;23.198;2023-05-12T04:46:46;92240.53;;;5.88;100.00
34506;BME280;20748;42.632;23.198;2023-05-12T04:49:18;92237.44;;;5.81;100.00
34506;BME280;20748;42.632;23.198;2023-05-12T04:51:52;92244.16;;;5.87;100.00
34506;BME280;20748;42.632;23.198;2023-05-12T04:54:24;92245.97;;;5.97;100.00
34506;BME280;20748;42.632;23.198;2023-05-12T04:56:57;92243.88;;;5.94;100.00
34506;BME280;20748;42.632;23.198;2023-05-12T04:59:30;92250.84;;;5.99;100.00
34506;BME280;20748;42.632;23.198;2023-05-12T05:02:04;92258.38;;;6.00;100.00
34506;BME280;20748;42.632;23.198;2023-05-12T05:04:39;92254.75;;;5.96;100.00
34506;BME280;20748;42.632;23.198;2023-05-12T05:07:11;92245.69;;;5.99;100.00
34506;BME280;20748;42.632;23.198;2023-05-12T05:09:43;92245.19;;;5.97;100.00
34506;BME280;20748;42.632;23.198;2023-05-12T05:12:16;92244.94;;;6.03;100.00
34506;BME280;20748;42.632;23.198;2023-05-12T05:14:48;92244.16;;;6.03;100.00
34506;BME280;20748;42.632;23.198;2023-05-12T05:17:22;92242.34;;;6.03;100.00
34506;BME280;20748;42.632;23.198;2023-05-12T05:19:54;92243.88;;;6.10;100.00
34506;BME280;20748;42.632;23.198;2023-05-12T05:22:33;92245.19;;;6.12;100.00
34506;BME280;20748;42.632;23.198;2023-05-12T05:25:06;92254.19;;;6.20;100.00
34506;BME280;20748;42.632;23.198;2023-05-12T05:27:39;92246.50;;;6.04;100.00
34506;BME280;20748;42.632;23.198;2023-05-12T05:30:11;92242.06;;;6.10;100.00
34506;BME280;20748;42.632;23.198;2023-05-12T05:32:45;92253.19;;;6.11;100.00
34506;BME280;20748;42.632;23.198;2023-05-12T05:35:18;92252.69;;;6.09;100.00
34506;BME280;20748;42.632;23.198;2023-05-12T05:37:53;92255.78;;;6.21;100.00
34506;BME280;20748;42.632;23.198;2023-05-12T05:40:26;92255.50;;;6.23;100.00
34506;BME280;20748;42.632;23.198;2023-05-12T05:43:02;92259.13;;;6.27;100.00
34506;BME280;20748;42.632;23.198;2023-05-12T05:45:34;92259.91;;;6.27;100.00
34506;BME280;20748;42.632;23.198;2023-05-12T05:48:08;92258.88;;;6.23;100.00
34506;BME280;20748;42.632;23.198;2023-05-12T05:50:40;92261.44;;;6.28;100.00
34506;BME280;20748;42.632;23.198;2023-05-12T05:53:12;92263.00;;;6.29;100.00
34506;BME280;20748;42.632;23.198;2023-05-12T05:55:46;92263.72;;;6.35;100.00
34506;BME280;20748;42.632;23.198;2023-05-12T05:58:19;92258.84;;;6.34;100.00
34506;BME280;20748;42.632;23.198;2023-05-12T06:00:52;92258.28;;;6.37;100.00
34506;BME280;20748;42.632;23.198;2023-05-12T06:03:25;92259.13;;;6.22;100.00
34506;BME280;20748;42.632;23.198;2023-05-12T06:05:58;92268.44;;;6.28;100.00
34506;BME280;20748;42.632;23.198;2023-05-12T06:08:31;92269.72;;;6.25;100.00
34506;BME280;20748;42.632;23.198;2023-05-12T06:11:04;92267.91;;;6.31;100.00
34506;BME280;20748;42.632;23.198;2023-05-12T06:13:36;92272.31;;;6.25;100.00
34506;BME280;20748;42.632;23.198;2023-05-12T06:16:08;92273.88;;;6.26;100.00
34506;BME280;20748;42.632;23.198;2023-05-12T06:18:41;92272.31;;;6.30;100.00
34506;BME280;20748;42.632;23.198;2023-05-12T06:21:14;92279.00;;;6.42;100.00
34506;BME280;20748;42.632;23.198;2023-05-12T06:23:46;92278.75;;;6.49;100.00
34506;BME280;20748;42.632;23.198;2023-05-12T06:26:18;92293.28;;;6.39;100.00
34506;BME280;20748;42.632;23.198;2023-05-12T06:28:52;92287.28;;;6.44;100.00
34506;BME280;20748;42.632;23.198;2023-05-12T06:31:24;92282.59;;;6.56;100.00
34506;BME280;20748;42.632;23.198;2023-05-12T06:33:57;92284.91;;;6.58;100.00
34506;BME280;20748;42.632;23.198;2023-05-12T06:36:29;92287.72;;;6.67;100.00
34506;BME280;20748;42.632;23.198;2023-05-12T06:39:01;92290.88;;;6.64;100.00
34506;BME280;20748;42.632;23.198;2023-05-12T06:41:35;92291.38;;;6.66;100.00
34506;BME280;20748;42.632;23.198;2023-05-12T06:44:09;92292.34;;;6.80;100.00
34506;BME280;20748;42.632;23.198;2023-05-12T06:46:43;92293.06;;;6.91;100.00
34506;BME280;20748;42.632;23.198;2023-05-12T06:49:16;92296.69;;;6.95;100.00
34506;BME280;20748;42.632;23.198;2023-05-12T06:51:48;92292.88;;;6.77;100.00
34506;BME280;20748;42.632;23.198;2023-05-12T06:54:21;92288.19;;;6.79;100.00
34506;BME280;20748;42.632;23.198;2023-05-12T06:56:53;92290.75;;;6.90;100.00
34506;BME280;20748;42.632;23.198;2023-05-12T06:59:25;92288.16;;;6.84;100.00
34506;BME280;20748;42.632;23.198;2023-05-12T07:01:58;92295.94;;;6.90;100.00
34506;BME280;20748;42.632;23.198;2023-05-12T07:04:31;92292.34;;;6.85;100.00
34506;BME280;20748;42.632;23.198;2023-05-12T07:07:03;92294.13;;;6.90;100.00
34506;BME280;20748;42.632;23.198;2023-05-12T07:09:36;92287.66;;;6.88;100.00
34506;BME280;20748;42.632;23.198;2023-05-12T07:12:09;92295.94;;;6.90;100.00
34506;BME280;20748;42.632;23.198;2023-05-12T07:14:42;92292.25;;;6.96;100.00
34506;BME280;20748;42.632;23.198;2023-05-12T07:17:14;92291.28;;;6.92;100.00
34506;BME280;20748;42.632;23.198;2023-05-12T07:19:47;92297.41;;;7.06;100.00
34506;BME280;20748;42.632;23.198;2023-05-12T07:22:19;92288.88;;;7.01;100.00
34506;BME280;20748;42.632;23.198;2023-05-12T07:24:52;92291.44;;;7.06;100.00
34506;BME280;20748;42.632;23.198;2023-05-12T07:27:25;92297.91;;;7.08;100.00
34506;BME280;20748;42.632;23.198;2023-05-12T07:29:57;92293.97;;;7.16;100.00
34506;BME280;20748;42.632;23.198;2023-05-12T07:32:29;92303.81;;;7.24;100.00
34506;BME280;20748;42.632;23.198;2023-05-12T07:35:03;92300.47;;;7.14;100.00
34506;BME280;20748;42.632;23.198;2023-05-12T07:37:36;92308.19;;;7.24;100.00
34506;BME280;20748;42.632;23.198;2023-05-12T07:40:08;92295.69;;;7.31;100.00
34506;BME280;20748;42.632;23.198;2023-05-12T07:42:41;92303.00;;;7.24;100.00
34506;BME280;20748;42.632;23.198;2023-05-12T07:45:13;92295.75;;;7.21;100.00
34506;BME280;20748;42.632;23.198;2023-05-12T07:47:47;92302.72;;;7.31;100.00
34506;BME280;20748;42.632;23.198;2023-05-12T07:50:20;92297.78;;;7.29;100.00
34506;BME280;20748;42.632;23.198;2023-05-12T07:52:52;92292.56;;;7.34;100.00
34506;BME280;20748;42.632;23.198;2023-05-12T07:55:25;92290.41;;;7.47;100.00
34506;BME280;20748;42.632;23.198;2023-05-12T07:57:57;92287.56;;;7.43;100.00
34506;BME280;20748;42.632;23.198;2023-05-12T08:00:29;92291.94;;;7.48;100.00
34506;BME280;20748;42.632;23.198;2023-05-12T08:03:02;92291.69;;;7.49;100.00
34506;BME280;20748;42.632;23.198;2023-05-12T08:05:35;92281.75;;;7.57;100.00
34506;BME280;20748;42.632;23.198;2023-05-12T08:08:08;92281.47;;;7.63;100.00
34506;BME280;20748;42.632;23.198;2023-05-12T08:10:46;92284.28;;;7.67;100.00
34506;BME280;20748;42.632;23.198;2023-05-12T08:13:18;92285.81;;;7.68;100.00
34506;BME280;20748;42.632;23.198;2023-05-12T08:15:51;92290.69;;;7.80;100.00
34506;BME280;20748;42.632;23.198;2023-05-12T08:18:23;92289.03;;;7.89;100.00
34506;BME280;20748;42.632;23.198;2023-05-12T08:20:57;92285.47;;;7.80;100.00
34506;BME280;20748;42.632;23.198;2023-05-12T08:23:29;92293.50;;;7.84;100.00
34506;BME280;20748;42.632;23.198;2023-05-12T08:26:01;92293.78;;;8.06;100.00
34506;BME280;20748;42.632;23.198;2023-05-12T08:28:34;92301.09;;;8.04;100.00
34506;BME280;20748;42.632;23.198;2023-05-12T08:31:06;92304.09;;;8.17;100.00
34506;BME280;20748;42.632;23.198;2023-05-12T08:33:38;92298.16;;;8.16;100.00
34506;BME280;20748;42.632;23.198;2023-05-12T08:36:14;92299.16;;;8.15;100.00
34506;BME280;20748;42.632;23.198;2023-05-12T08:38:47;92298.09;;;8.22;100.00
34506;BME280;20748;42.632;23.198;2023-05-12T08:41:27;92290.53;;;8.25;100.00
34506;BME280;20748;42.632;23.198;2023-05-12T08:44:02;92295.44;;;8.51;100.00
34506;BME280;20748;42.632;23.198;2023-05-12T08:46:34;92297.34;;;8.45;100.00
34506;BME280;20748;42.632;23.198;2023-05-12T08:49:09;92296.28;;;8.46;100.00
34506;BME280;20748;42.632;23.198;2023-05-12T08:51:44;92294.47;;;8.71;100.00
34506;BME280;20748;42.632;23.198;2023-05-12T08:54:29;92295.56;;;8.90;100.00
34506;BME280;20748;42.632;23.198;2023-05-12T08:57:03;92294.16;;;9.17;100.00
34506;BME280;20748;42.632;23.198;2023-05-12T08:59:42;92292.44;;;9.45;100.00
34506;BME280;20748;42.632;23.198;2023-05-12T09:02:16;92288.03;;;9.46;100.00
34506;BME280;20748;42.632;23.198;2023-05-12T09:05:08;92285.28;;;9.56;100.00
34506;BME280;20748;42.632;23.198;2023-05-12T09:07:42;92264.47;;;9.70;100.00
34506;BME280;20748;42.632;23.198;2023-05-12T09:10:16;92283.75;;;10.02;100.00
34506;BME280;20748;42.632;23.198;2023-05-12T09:13:12;92282.03;;;10.12;100.00
34506;BME280;20748;42.632;23.198;2023-05-12T09:15:46;92264.25;;;10.14;100.00
34506;BME280;20748;42.632;23.198;2023-05-12T09:18:19;92275.38;;;10.19;100.00
34506;BME280;20748;42.632;23.198;2023-05-12T09:20:51;92282.34;;;10.38;100.00
34506;BME280;20748;42.632;23.198;2023-05-12T09:23:24;92273.22;;;10.55;100.00
34506;BME280;20748;42.632;23.198;2023-05-12T09:26:00;92276.88;;;10.54;100.00
34506;BME280;20748;42.632;23.198;2023-05-12T09:28:36;92272.72;;;10.67;100.00
34506;BME280;20748;42.632;23.198;2023-05-12T09:31:16;92278.03;;;10.76;100.00
34506;BME280;20748;42.632;23.198;2023-05-12T09:33:50;92276.84;;;10.82;100.00
34506;BME280;20748;42.632;23.198;2023-05-12T09:36:24;92281.19;;;10.86;100.00
34506;BME280;20748;42.632;23.198;2023-05-12T09:39:01;92287.00;;;10.97;100.00
34506;BME280;20748;42.632;23.198;2023-05-12T09:41:35;92278.91;;;10.85;100.00
34506;BME280;20748;42.632;23.198;2023-05-12T09:44:09;92279.44;;;10.96;100.00
34506;BME280;20748;42.632;23.198;2023-05-12T09:46:45;92279.91;;;11.12;100.00
34506;BME280;20748;42.632;23.198;2023-05-12T09:49:18;92286.34;;;11.28;100.00
34506;BME280;20748;42.632;23.198;2023-05-12T09:51:51;92280.16;;;11.24;100.00
34506;BME280;20748;42.632;23.198;2023-05-12T09:54:24;92293.72;;;11.26;100.00
34506;BME280;20748;42.632;23.198;2023-05-12T09:56:58;92285.97;;;11.21;100.00
34506;BME280;20748;42.632;23.198;2023-05-12T09:59:32;92284.44;;;11.20;100.00
34506;BME280;20748;42.632;23.198;2023-05-12T10:02:05;92284.03;;;11.13;100.00
34506;BME280;20748;42.632;23.198;2023-05-12T10:04:43;92290.16;;;11.08;100.00
34506;BME280;20748;42.632;23.198;2023-05-12T10:07:18;92282.59;;;11.21;100.00
34506;BME280;20748;42.632;23.198;2023-05-12T10:09:54;92284.84;;;11.13;100.00
34506;BME280;20748;42.632;23.198;2023-05-12T10:12:29;92280.94;;;11.25;100.00
34506;BME280;20748;42.632;23.198;2023-05-12T10:15:02;92282.88;;;11.19;100.00
34506;BME280;20748;42.632;23.198;2023-05-12T10:17:36;92271.59;;;11.10;100.00
34506;BME280;20748;42.632;23.198;2023-05-12T10:20:09;92280.16;;;11.24;100.00
34506;BME280;20748;42.632;23.198;2023-05-12T10:22:43;92271.22;;;11.03;100.00
34506;BME280;20748;42.632;23.198;2023-05-12T10:25:16;92278.44;;;11.20;100.00
34506;BME280;20748;42.632;23.198;2023-05-12T10:27:50;92279.88;;;11.26;100.00
34506;BME280;20748;42.632;23.198;2023-05-12T10:30:25;92283.00;;;11.37;100.00
34506;BME280;20748;42.632;23.198;2023-05-12T10:32:57;92278.09;;;11.35;99.68
34506;BME280;20748;42.632;23.198;2023-05-12T10:35:31;92277.56;;;11.47;98.69
34506;BME280;20748;42.632;23.198;2023-05-12T10:38:07;92277.91;;;11.54;98.98
34506;BME280;20748;42.632;23.198;2023-05-12T10:40:50;92275.31;;;11.54;97.88
34506;BME280;20748;42.632;23.198;2023-05-12T10:43:24;92280.34;;;11.51;97.50
34506;BME280;20748;42.632;23.198;2023-05-12T10:46:08;92270.22;;;11.49;97.51
34506;BME280;20748;42.632;23.198;2023-05-12T10:48:50;92281.50;;;11.59;97.38
34506;BME280;20748;42.632;23.198;2023-05-12T10:51:24;92273.53;;;11.64;95.99
34506;BME280;20748;42.632;23.198;2023-05-12T10:54:00;92270.09;;;11.77;96.91
34506;BME280;20748;42.632;23.198;2023-05-12T10:56:42;92276.72;;;11.84;97.66
34506;BME280;20748;42.632;23.198;2023-05-12T10:59:16;92276.44;;;12.08;94.31
34506;BME280;20748;42.632;23.198;2023-05-12T11:02:01;92287.53;;;12.14;93.37
34506;BME280;20748;42.632;23.198;2023-05-12T11:04:40;92285.00;;;12.31;94.81
34506;BME280;20748;42.632;23.198;2023-05-12T11:07:14;92280.84;;;12.30;92.45
34506;BME280;20748;42.632;23.198;2023-05-12T11:09:48;92285.25;;;12.12;91.03
34506;BME280;20748;42.632;23.198;2023-05-12T11:12:25;92283.38;;;12.13;92.52
34506;BME280;20748;42.632;23.198;2023-05-12T11:14:58;92291.09;;;12.18;93.07
34506;BME280;20748;42.632;23.198;2023-05-12T11:17:32;92287.91;;;12.21;91.21
34506;BME280;20748;42.632;23.198;2023-05-12T11:20:06;92288.53;;;12.27;93.91
34506;BME280;20748;42.632;23.198;2023-05-12T11:22:40;92292.31;;;12.12;90.24
34506;BME280;20748;42.632;23.198;2023-05-12T11:25:14;92292.06;;;12.22;91.77
34506;BME280;20748;42.632;23.198;2023-05-12T11:27:48;92297.97;;;12.37;91.43
34506;BME280;20748;42.632;23.198;2023-05-12T11:30:23;92291.03;;;12.32;88.43
34506;BME280;20748;42.632;23.198;2023-05-12T11:32:59;92293.47;;;12.28;90.67
34506;BME280;20748;42.632;23.198;2023-05-12T11:35:33;92294.59;;;12.36;92.49
34506;BME280;20748;42.632;23.198;2023-05-12T11:38:13;92293.69;;;12.41;93.15
34506;BME280;20748;42.632;23.198;2023-05-12T11:40:46;92302.97;;;12.56;92.16
34506;BME280;20748;42.632;23.198;2023-05-12T11:43:20;92299.81;;;12.36;88.01
34506;BME280;20748;42.632;23.198;2023-05-12T11:45:53;92293.50;;;12.37;90.84
34506;BME280;20748;42.632;23.198;2023-05-12T11:48:32;92277.50;;;12.39;89.99
34506;BME280;20748;42.632;23.198;2023-05-12T11:51:05;92291.34;;;12.39;89.97
34506;BME280;20748;42.632;23.198;2023-05-12T11:53:39;92268.69;;;12.26;89.06
34506;BME280;20748;42.632;23.198;2023-05-12T11:56:16;92293.41;;;12.51;89.80
34506;BME280;20748;42.632;23.198;2023-05-12T11:58:54;92296.31;;;12.49;87.58
34506;BME280;20748;42.632;23.198;2023-05-12T12:01:27;92292.19;;;12.57;89.37
34506;BME280;20748;42.632;23.198;2023-05-12T12:03:59;92289.44;;;12.62;89.88
34506;BME280;20748;42.632;23.198;2023-05-12T12:06:42;92293.91;;;12.62;89.12
34506;BME280;20748;42.632;23.198;2023-05-12T12:09:14;92298.19;;;12.58;87.84
34506;BME280;20748;42.632;23.198;2023-05-12T12:11:47;92289.94;;;12.73;88.36
34506;BME280;20748;42.632;23.198;2023-05-12T12:14:20;92300.22;;;12.61;88.50
34506;BME280;20748;42.632;23.198;2023-05-12T12:16:52;92297.31;;;12.62;86.59
34506;BME280;20748;42.632;23.198;2023-05-12T12:19:25;92298.56;;;12.65;87.60
34506;BME280;20748;42.632;23.198;2023-05-12T12:21:58;92295.91;;;12.56;87.98
34506;BME280;20748;42.632;23.198;2023-05-12T12:24:30;92293.28;;;12.56;88.66
34506;BME280;20748;42.632;23.198;2023-05-12T12:27:03;92291.72;;;12.55;88.12
34506;BME280;20748;42.632;23.198;2023-05-12T12:29:37;92288.38;;;12.64;88.58
34506;BME280;20748;42.632;23.198;2023-05-12T12:32:09;92288.97;;;12.60;87.67
34506;BME280;20748;42.632;23.198;2023-05-12T12:34:42;92289.41;;;12.54;87.27
34506;BME280;20748;42.632;23.198;2023-05-12T12:37:15;92290.66;;;12.56;87.38
34506;BME280;20748;42.632;23.198;2023-05-12T12:39:48;92283.44;;;12.62;88.16
34506;BME280;20748;42.632;23.198;2023-05-12T12:42:20;92284.84;;;12.68;89.70
34506;BME280;20748;42.632;23.198;2023-05-12T12:44:53;92286.84;;;12.62;88.55
34506;BME280;20748;42.632;23.198;2023-05-12T12:47:26;92283.88;;;12.55;88.23
34506;BME280;20748;42.632;23.198;2023-05-12T12:49:58;92278.31;;;12.48;86.11
34506;BME280;20748;42.632;23.198;2023-05-12T12:52:31;92282.34;;;12.63;87.35
34506;BME280;20748;42.632;23.198;2023-05-12T12:55:04;92282.09;;;12.73;86.58
34506;BME280;20748;42.632;23.198;2023-05-12T12:57:37;92280.53;;;12.64;85.09
34506;BME280;20748;42.632;23.198;2023-05-12T13:00:11;92274.19;;;12.56;86.30
34506;BME280;20748;42.632;23.198;2023-05-12T13:02:44;92267.72;;;12.62;85.50
34506;BME280;20748;42.632;23.198;2023-05-12T13:05:16;92266.84;;;12.75;85.17
34506;BME280;20748;42.632;23.198;2023-05-12T13:07:49;92257.00;;;12.81;83.53
34506;BME280;20748;42.632;23.198;2023-05-12T13:10:23;92249.00;;;12.78;83.58
34506;BME280;20748;42.632;23.198;2023-05-12T13:12:56;92242.03;;;12.73;82.66
34506;BME280;20748;42.632;23.198;2023-05-12T13:15:29;92241.91;;;12.78;81.16
34506;BME280;20748;42.632;23.198;2023-05-12T13:18:03;92247.00;;;12.83;78.97
34506;BME280;20748;42.632;23.198;2023-05-12T13:20:35;92246.69;;;12.76;81.30